Time;durP1;ratioP1;P1;durP2;ratioP2;P2;SDS_P1;SDS_P2;PMS_P1;PMS_P2;Temp;Humidity;BMP_temperature;BMP_pressure;BME280_temperature;BME280_humidity;BME280_pressure;Samples;Min_cycle;Max_cycle;Signal;HPM_P1;HPM_P2
2022/07/14 00:00:43;;;;;;;7.60;4.00;;;;;;;19.52;63.03;98424.38;104995;1288;23630;-77
2022/07/14 00:03:10;;;;;;;8.80;4.00;;;;;;;19.50;63.11;98422.76;105191;1287;22547;-77
2022/07/14 00:05:37;;;;;;;7.90;4.70;;;;;;;19.47;63.25;98423.25;104778;1287;138075;-77
2022/07/14 00:08:06;;;;;;;7.50;4.70;;;;;;;19.45;63.58;98426.60;105612;1287;22550;-77
2022/07/14 00:10:34;;;;;;;7.50;4.40;;;;;;;19.41;63.93;98423.59;105425;1286;137329;-77
2022/07/14 00:13:01;;;;;;;9.40;4.80;;;;;;;19.37;63.98;98419.50;105347;1289;24457;-77
2022/07/14 00:15:45;;;;;;;7.30;4.70;;;;;;;19.32;64.25;98420.27;105092;1289;25334;-76
2022/07/14 00:18:11;;;;;;;9.90;4.70;;;;;;;19.26;64.04;98419.88;104958;1289;137294;-77
2022/07/14 00:20:38;;;;;;;10.80;4.90;;;;;;;19.22;64.21;98416.36;105052;1289;22550;-77
2022/07/14 00:23:05;;;;;;;10.00;4.90;;;;;;;19.19;64.37;98416.36;105025;1287;137801;-78
2022/07/14 00:25:33;;;;;;;7.00;4.90;;;;;;;19.16;64.39;98414.80;104844;1288;22648;-78
2022/07/14 00:28:03;;;;;;;8.10;4.20;;;;;;;19.13;64.47;98416.57;104883;1287;137002;-78
2022/07/14 00:30:30;;;;;;;10.80;5.20;;;;;;;19.11;64.50;98416.55;104860;1288;22550;-78
2022/07/14 00:32:58;;;;;;;7.50;5.10;;;;;;;19.09;64.45;98421.83;105074;1287;22547;-78
2022/07/14 00:35:25;;;;;;;9.00;4.90;;;;;;;19.05;64.50;98418.20;104829;1289;136916;-78
2022/07/14 00:38:05;;;;;;;6.00;4.90;;;;;;;19.01;64.48;98419.91;105398;1286;26268;-78
2022/07/14 00:40:32;;;;;;;6.40;4.70;;;;;;;18.97;64.36;98418.59;106088;1283;137097;-77
2022/07/14 00:43:00;;;;;;;6.20;4.50;;;;;;;18.92;64.18;98417.85;105676;1284;24242;-77
2022/07/14 00:45:27;;;;;;;8.00;4.70;;;;;;;18.89;64.26;98414.70;106326;1282;25417;-78
2022/07/14 00:48:12;;;;;;;6.80;4.90;;;;;;;18.83;64.83;98411.59;105614;1282;137226;-77
2022/07/14 00:50:41;;;;;;;9.20;4.90;;;;;;;18.78;65.37;98420.31;105948;1282;24215;-77
2022/07/14 00:53:10;;;;;;;8.50;4.90;;;;;;;18.72;65.28;98413.95;106041;1282;137752;-77
2022/07/14 00:55:40;;;;;;;7.30;4.70;;;;;;;18.67;65.22;98417.77;105733;1284;22818;-77
2022/07/14 00:58:08;;;;;;;8.30;4.90;;;;;;;18.63;65.32;98416.13;105799;1283;137163;-77
2022/07/14 01:00:37;;;;;;;10.70;5.10;;;;;;;18.59;65.47;98409.77;105940;1284;24327;-77
2022/07/14 01:03:08;;;;;;;7.30;5.00;;;;;;;18.54;65.71;98405.07;106031;1282;22667;-77
2022/07/14 01:05:35;;;;;;;6.30;5.00;;;;;;;18.49;65.80;98402.61;105992;1281;137008;-77
2022/07/14 01:08:03;;;;;;;9.60;5.10;;;;;;;18.44;66.02;98399.38;106022;1281;22554;-77
2022/07/14 01:10:30;;;;;;;7.70;5.20;;;;;;;18.39;65.91;98400.65;105798;1282;137355;-77
2022/07/14 01:13:00;;;;;;;8.10;5.10;;;;;;;18.36;65.90;98402.73;106186;1281;25268;-77
2022/07/14 01:15:28;;;;;;;7.00;4.40;;;;;;;18.33;65.79;98402.48;105895;1281;22553;-77
2022/07/14 01:17:55;;;;;;;7.40;4.20;;;;;;;18.31;65.88;98404.84;106478;1281;137776;-77
2022/07/14 01:20:24;;;;;;;8.30;4.60;;;;;;;18.31;65.88;98401.25;105772;1284;22529;-77
2022/07/14 01:22:52;;;;;;;7.70;4.40;;;;;;;18.32;65.78;98401.46;105763;1281;137039;-77
2022/07/14 01:25:20;;;;;;;5.10;3.90;;;;;;;18.32;65.82;98396.00;105912;1281;22566;-77
2022/07/14 01:27:48;;;;;;;7.00;4.60;;;;;;;18.32;65.77;98390.33;105963;1282;22585;-77
2022/07/14 01:30:16;;;;;;;10.10;4.80;;;;;;;18.32;65.69;98388.00;105689;1281;137120;-77
2022/07/14 01:32:43;;;;;;;7.20;4.70;;;;;;;18.31;65.67;98386.48;105733;1281;22547;-78
2022/07/14 01:35:10;;;;;;;6.00;4.20;;;;;;;18.29;65.65;98390.48;105463;1281;137167;-78
2022/07/14 01:37:37;;;;;;;6.10;4.30;;;;;;;18.27;65.72;98393.27;106013;1281;22629;-78
2022/07/14 01:40:08;;;;;;;6.40;3.90;;;;;;;18.25;65.75;98391.09;105961;1280;137608;-78
2022/07/14 01:42:38;;;;;;;8.00;4.20;;;;;;;18.22;65.69;98387.88;106032;1282;22544;-78
2022/07/14 01:45:08;;;;;;;6.50;4.10;;;;;;;18.21;65.76;98388.48;105710;1280;25297;-78
2022/07/14 01:47:35;;;;;;;9.90;4.40;;;;;;;18.20;65.75;98384.20;105996;1279;138359;-78
2022/07/14 01:50:03;;;;;;;6.10;4.00;;;;;;;18.21;65.68;98378.36;106058;1279;23662;-77
2022/07/14 01:52:32;;;;;;;7.00;4.00;;;;;;;18.22;65.79;98378.08;105683;1281;137191;-77
2022/07/14 01:54:59;;;;;;;8.30;4.20;;;;;;;18.23;65.95;98382.30;105926;1280;25461;-78
2022/07/14 01:57:26;;;;;;;5.30;3.80;;;;;;;18.23;65.74;98378.93;105755;1280;22736;-77
2022/07/14 01:59:54;;;;;;;8.10;4.40;;;;;;;18.23;65.50;98381.40;105650;1280;137222;-78
2022/07/14 02:02:21;;;;;;;6.70;4.10;;;;;;;18.24;65.05;98377.92;105719;1280;24287;-78
2022/07/14 02:04:48;;;;;;;5.60;3.60;;;;;;;18.24;65.18;98372.52;105878;1281;136937;-78
2022/07/14 02:07:17;;;;;;;8.70;3.70;;;;;;;18.20;65.31;98371.67;106046;1280;22549;-77
2022/07/14 02:12:33;;;;;;;5.10;3.80;;;;;;;18.16;65.01;98373.40;106074;1280;25576;-78
2022/07/14 02:15:01;;;;;;;4.90;3.30;;;;;;;18.14;65.63;98373.59;105849;1280;25589;-78
2022/07/14 02:17:28;;;;;;;6.70;3.20;;;;;;;18.13;65.93;98371.63;105872;1281;137820;-77
2022/07/14 02:20:00;;;;;;;9.20;3.60;;;;;;;18.12;66.01;98368.55;105995;1280;24324;-78
2022/07/14 02:22:27;;;;;;;7.00;3.60;;;;;;;18.10;66.26;98371.55;105657;1281;137348;-78
2022/07/14 02:24:54;;;;;;;6.10;3.50;;;;;;;18.10;65.97;98369.20;105807;1280;24322;-78
2022/07/14 02:27:21;;;;;;;6.10;3.90;;;;;;;18.09;65.77;98369.80;106078;1280;22665;-77
2022/07/14 02:29:48;;;;;;;5.70;3.30;;;;;;;18.09;65.84;98371.29;106070;1280;137230;-78
2022/07/14 02:32:15;;;;;;;8.50;3.80;;;;;;;18.08;65.60;98370.36;105862;1280;24306;-77
2022/07/14 02:34:42;;;;;;;8.10;3.40;;;;;;;18.09;65.36;98371.74;105825;1281;137541;-78
2022/07/14 02:37:12;;;;;;;9.30;4.40;;;;;;;18.10;65.06;98375.86;106039;1281;22540;-77
2022/07/14 02:39:39;;;;;;;7.50;3.20;;;;;;;18.12;64.72;98377.54;105769;1280;23920;-78
2022/07/14 02:42:10;;;;;;;6.00;3.90;;;;;;;18.14;64.68;98376.41;105774;1281;137072;-77
2022/07/14 02:44:37;;;;;;;6.90;3.60;;;;;;;18.15;64.42;98378.37;105881;1279;25206;-77
2022/07/14 02:47:04;;;;;;;5.80;3.40;;;;;;;18.16;64.34;98380.52;105481;1281;137456;-77
2022/07/14 02:49:31;;;;;;;8.60;3.60;;;;;;;18.18;64.25;98383.52;105939;1281;22655;-77
2022/07/14 02:51:58;;;;;;;6.10;3.50;;;;;;;18.18;64.01;98385.99;105721;1279;137410;-77
2022/07/14 02:54:25;;;;;;;5.80;3.80;;;;;;;18.19;64.09;98384.13;106042;1280;25257;-77
2022/07/14 02:56:52;;;;;;;4.60;3.30;;;;;;;18.19;63.94;98375.63;105794;1281;24098;-77
2022/07/14 02:59:20;;;;;;;4.60;3.50;;;;;;;18.19;63.84;98377.93;105870;1281;138075;-77
2022/07/14 03:01:56;;;;;;;6.60;3.90;;;;;;;18.20;63.62;98377.97;105918;1280;22572;-77
2022/07/14 03:04:23;;;;;;;9.10;3.50;;;;;;;18.22;63.48;98381.64;105675;1281;138200;-77
2022/07/14 03:06:52;;;;;;;8.60;3.60;;;;;;;18.23;63.59;98375.08;106077;1280;22595;-78
2022/07/14 03:09:21;;;;;;;6.30;3.70;;;;;;;18.23;63.97;98371.86;105735;1281;23183;-77
2022/07/14 03:11:50;;;;;;;6.80;3.10;;;;;;;18.25;64.15;98368.48;105665;1280;138392;-76
2022/07/14 03:14:17;;;;;;;9.50;3.50;;;;;;;18.25;64.34;98363.63;105737;1281;22681;-77
2022/07/14 03:16:44;;;;;;;6.80;3.60;;;;;;;18.27;64.16;98364.43;105678;1281;137700;-77
2022/07/14 03:19:11;;;;;;;6.20;3.80;;;;;;;18.28;64.08;98366.24;105728;1281;22570;-77
2022/07/14 03:21:38;;;;;;;5.10;3.60;;;;;;;18.30;63.88;98363.52;105695;1281;25468;-77
2022/07/14 03:24:06;;;;;;;4.60;3.20;;;;;;;18.31;63.95;98367.56;105647;1281;137340;-77
2022/07/14 03:26:35;;;;;;;5.30;3.40;;;;;;;18.32;64.06;98368.10;105769;1281;24213;-78
2022/07/14 03:29:03;;;;;;;6.70;3.50;;;;;;;18.33;64.22;98369.91;106197;1280;138232;-79
2022/07/14 03:31:30;;;;;;;6.70;3.50;;;;;;;18.34;64.36;98374.08;105928;1281;24464;-79
2022/07/14 03:33:59;;;;;;;7.10;4.20;;;;;;;18.37;64.44;98368.70;105657;1281;137355;-79
2022/07/14 03:36:27;;;;;;;8.20;3.50;;;;;;;18.39;64.51;98369.22;106097;1281;22547;-78
2022/07/14 03:38:56;;;;;;;6.00;3.90;;;;;;;18.41;64.46;98369.80;106045;1283;24861;-78
2022/07/14 03:41:23;;;;;;;6.50;3.90;;;;;;;18.43;64.31;98368.05;105816;1283;137633;-79
2022/07/14 03:43:51;;;;;;;6.30;3.80;;;;;;;18.44;64.40;98364.63;105864;1284;22620;-78
2022/07/14 03:46:19;;;;;;;7.40;3.90;;;;;;;18.44;64.46;98367.88;105578;1282;138028;-78
2022/07/14 03:48:54;;;;;;;5.80;3.70;;;;;;;18.45;64.71;98369.52;106177;1284;22583;-77
2022/07/14 03:51:43;;;;;;;5.20;3.60;;;;;;;18.48;64.76;98367.33;105718;1281;25631;-78
2022/07/14 03:54:14;;;;;;;5.90;3.70;;;;;;;18.52;64.70;98369.96;105781;1281;138261;-80
2022/07/14 03:56:43;;;;;;;7.20;4.30;;;;;;;18.56;64.71;98367.36;105837;1283;22855;-78
2022/07/14 03:59:11;;;;;;;7.10;3.70;;;;;;;18.59;64.58;98367.63;105886;1284;137184;-77
2022/07/14 04:01:38;;;;;;;7.90;4.20;;;;;;;18.63;64.61;98373.38;105957;1284;22540;-77
2022/07/14 04:04:06;;;;;;;8.60;3.60;;;;;;;18.65;64.50;98373.50;106157;1283;137281;-77
2022/07/14 04:06:33;;;;;;;6.00;3.80;;;;;;;18.68;64.29;98376.44;105915;1284;25655;-76
2022/07/14 04:09:03;;;;;;;6.80;3.40;;;;;;;18.69;64.11;98372.82;106199;1281;25251;-78
2022/07/14 04:11:31;;;;;;;7.10;3.80;;;;;;;18.70;64.28;98368.62;105775;1281;137122;-77
2022/07/14 04:14:04;;;;;;;7.90;3.90;;;;;;;18.70;64.60;98366.48;105657;1281;25819;-79
2022/07/14 04:16:31;;;;;;;8.10;4.20;;;;;;;18.68;64.78;98359.77;105886;1281;137304;-78
2022/07/14 04:18:59;;;;;;;8.70;3.90;;;;;;;18.68;65.11;98360.88;105809;1284;22686;-78
2022/07/14 04:21:40;;;;;;;7.80;4.00;;;;;;;18.69;65.28;98358.67;106055;1284;22557;-77
2022/07/14 04:24:07;;;;;;;7.60;4.20;;;;;;;18.68;65.66;98354.31;105834;1284;137754;-79
2022/07/14 04:26:40;;;;;;;6.40;4.60;;;;;;;18.69;65.60;98359.95;105755;1281;22742;-77
2022/07/14 04:29:08;;;;;;;6.50;3.80;;;;;;;18.71;65.64;98352.21;106081;1281;137591;-78
2022/07/14 04:31:35;;;;;;;9.70;4.20;;;;;;;18.76;65.67;98349.76;106125;1280;22657;-76
2022/07/14 04:34:06;;;;;;;6.90;4.80;;;;;;;18.80;65.69;98342.48;105709;1281;138251;-76
2022/07/14 04:36:36;;;;;;;9.10;3.90;;;;;;;18.82;66.24;98342.13;105788;1281;23970;-76
2022/07/14 04:39:07;;;;;;;10.40;4.50;;;;;;;18.84;66.69;98344.87;106189;1284;22711;-76
2022/07/14 04:41:36;;;;;;;14.20;4.40;;;;;;;18.86;66.71;98341.63;105966;1281;137521;-76
2022/07/14 04:44:04;;;;;;;12.20;4.60;;;;;;;18.88;66.73;98350.74;105970;1284;22705;-76
2022/07/14 04:46:45;;;;;;;18.60;5.20;;;;;;;18.88;66.74;98346.89;105700;1281;137321;-76
2022/07/14 04:52:04;;;;;;;12.80;5.00;;;;;;;18.93;67.04;98352.61;105849;1281;137748;-76
2022/07/14 04:54:45;;;;;;;15.30;4.70;;;;;;;18.95;67.20;98357.75;105959;1281;23260;-76
2022/07/14 04:57:49;;;;;;;7.30;4.20;;;;;;;18.92;67.15;98354.60;106077;1281;23117;-77
2022/07/14 05:00:33;;;;;;;11.00;5.10;;;;;;;18.89;66.89;98346.61;106135;1281;22716;-77
2022/07/14 05:03:00;;;;;;;11.50;4.70;;;;;;;18.92;67.00;98342.48;106188;1281;25416;-77
2022/07/14 05:05:28;;;;;;;11.60;4.80;;;;;;;18.98;66.83;98353.73;106285;1281;137266;-77
2022/07/14 05:07:55;;;;;;;9.40;4.20;;;;;;;19.02;66.32;98348.31;105798;1281;25378;-78
2022/07/14 05:10:28;;;;;;;9.00;4.50;;;;;;;19.07;66.29;98347.38;105637;1284;137393;-77
2022/07/14 05:12:55;;;;;;;11.90;4.60;;;;;;;19.11;66.47;98350.35;106205;1283;22551;-77
2022/07/14 05:15:22;;;;;;;7.50;4.20;;;;;;;19.14;66.44;98349.03;106070;1280;22547;-77
2022/07/14 05:18:04;;;;;;;7.80;4.30;;;;;;;19.23;66.11;98350.23;106052;1278;137924;-77
2022/07/14 05:20:31;;;;;;;14.20;4.70;;;;;;;19.32;65.83;98355.27;106363;1277;24336;-77
2022/07/14 05:22:59;;;;;;;12.00;4.80;;;;;;;19.40;66.02;98349.82;106144;1277;137840;-77
2022/07/14 05:25:27;;;;;;;8.80;4.10;;;;;;;19.47;65.74;98347.02;106149;1277;22547;-77
2022/07/14 05:27:54;;;;;;;9.40;3.90;;;;;;;19.55;65.51;98345.54;106050;1280;137284;-77
2022/07/14 05:30:30;;;;;;;6.90;3.40;;;;;;;19.62;64.98;98354.14;106144;1280;23535;-77
2022/07/14 05:32:58;;;;;;;6.80;2.80;;;;;;;19.66;64.39;98352.02;106104;1280;22689;-77
2022/07/14 05:35:25;;;;;;;6.70;2.90;;;;;;;19.70;63.36;98353.30;105959;1280;137795;-77
2022/07/14 05:37:53;;;;;;;7.90;3.20;;;;;;;19.77;62.78;98355.24;106141;1277;22562;-78
2022/07/14 05:40:20;;;;;;;7.80;2.70;;;;;;;19.85;62.28;98353.07;106140;1277;137694;-78
2022/07/14 05:42:48;;;;;;;4.90;2.40;;;;;;;19.95;62.06;98350.11;106114;1278;24252;-78
2022/07/14 05:45:16;;;;;;;13.70;3.00;;;;;;;20.04;61.78;98350.02;106418;1277;22684;-79
2022/07/14 05:47:57;;;;;;;13.50;2.90;;;;;;;20.15;61.86;98350.04;106050;1280;137743;-78
2022/07/14 05:50:25;;;;;;;12.60;3.50;;;;;;;20.26;61.70;98353.23;106089;1280;24253;-77
2022/07/14 05:52:52;;;;;;;19.10;3.10;;;;;;;20.37;61.72;98351.39;105979;1278;137340;-79
2022/07/14 05:55:21;;;;;;;11.10;3.10;;;;;;;20.48;61.44;98351.34;106085;1280;25750;-77
2022/07/14 05:58:03;;;;;;;11.70;3.00;;;;;;;20.56;61.30;98345.23;106447;1277;137603;-78
2022/07/14 06:00:33;;;;;;;11.60;3.60;;;;;;;20.65;61.01;98344.16;106181;1277;24294;-78
2022/07/14 06:03:01;;;;;;;10.60;2.50;;;;;;;20.75;60.84;98341.98;106198;1277;22564;-77
2022/07/14 06:05:42;;;;;;;9.60;3.10;;;;;;;20.85;60.51;98342.56;106260;1277;138010;-78
2022/07/14 06:08:23;;;;;;;5.40;2.90;;;;;;;20.95;59.84;98347.18;106537;1277;25525;-77
2022/07/14 06:10:50;;;;;;;8.70;2.60;;;;;;;21.06;59.44;98348.63;106242;1280;137311;-79
2022/07/14 06:13:17;;;;;;;13.40;3.20;;;;;;;21.16;59.33;98345.64;105870;1280;26481;-78
2022/07/14 06:15:45;;;;;;;10.40;2.60;;;;;;;21.27;59.20;98343.52;106485;1278;22593;-78
2022/07/14 06:18:12;;;;;;;11.20;3.30;;;;;;;21.39;59.05;98345.69;106287;1277;137849;-77
2022/07/14 06:20:41;;;;;;;10.60;2.60;;;;;;;21.55;58.41;98345.83;106254;1277;23548;-77
2022/07/14 07:28:06;;;;;;;2.30;2.10;;;;;;;24.23;48.06;98349.36;102131;1318;594920;-79
2022/07/14 07:30:33;;;;;;;3.70;1.90;;;;;;;24.35;47.35;98351.04;104155;1294;399786;-79
2022/07/14 07:33:00;;;;;;;5.50;1.90;;;;;;;24.28;46.91;98352.36;104999;1292;23441;-78
2022/07/14 07:35:26;;;;;;;2.00;1.90;;;;;;;24.20;47.55;98352.95;104819;1292;22592;-77
2022/07/14 07:37:53;;;;;;;3.90;1.80;;;;;;;24.16;47.02;98350.71;104641;1292;23410;-78
2022/07/14 07:40:19;;;;;;;3.70;1.80;;;;;;;24.16;47.26;98348.42;104692;1292;136621;-79
2022/07/14 07:42:46;;;;;;;7.50;1.90;;;;;;;24.21;47.58;98343.92;104246;1293;22566;-79
2022/07/14 07:45:24;;;;;;;6.80;2.20;;;;;;;24.28;47.58;98345.91;104172;1293;24269;-80
2022/07/14 07:47:51;;;;;;;5.40;2.40;;;;;;;24.35;47.59;98344.20;104501;1293;25509;-80
2022/07/14 07:50:18;;;;;;;3.70;2.10;;;;;;;24.42;47.56;98342.73;104548;1294;24256;-80
2022/07/14 07:52:44;;;;;;;7.20;2.10;;;;;;;24.52;46.84;98341.03;105018;1291;137027;-79
2022/07/14 07:55:11;;;;;;;5.90;2.40;;;;;;;24.57;46.94;98338.77;104846;1291;24172;-80
2022/07/14 07:57:38;;;;;;;5.80;2.00;;;;;;;24.64;47.62;98340.31;104956;1290;136892;-79
2022/07/14 08:00:07;;;;;;;8.00;2.00;;;;;;;24.69;47.27;98341.84;104822;1291;25365;-80
2022/07/14 08:02:48;;;;;;;3.10;1.90;;;;;;;24.75;47.54;98338.98;104805;1290;22554;-80
2022/07/14 08:05:23;;;;;;;9.60;2.10;;;;;;;24.83;46.88;98337.34;104939;1290;137075;-83
2022/07/14 08:07:50;;;;;;;6.40;2.10;;;;;;;24.90;46.95;98339.23;104661;1290;24261;-80
2022/07/14 08:10:16;;;;;;;5.80;2.00;;;;;;;24.97;46.79;98336.11;104865;1290;136940;-81
2022/07/14 08:12:43;;;;;;;3.70;2.10;;;;;;;25.06;47.13;98337.12;104866;1290;22826;-79
2022/07/14 08:15:10;;;;;;;4.00;2.10;;;;;;;25.15;46.25;98331.22;104701;1291;23938;-79
2022/07/14 08:17:37;;;;;;;5.30;2.30;;;;;;;25.21;46.33;98331.49;104739;1290;25325;-78
2022/07/14 08:20:05;;;;;;;6.10;2.60;;;;;;;25.23;45.89;98330.45;104776;1290;23040;-78
2022/07/14 08:22:32;;;;;;;6.50;2.70;;;;;;;25.28;46.18;98327.87;104673;1292;137034;-78
2022/07/14 08:24:58;;;;;;;4.80;2.50;;;;;;;25.37;46.96;98327.77;104929;1290;23928;-77
2022/07/14 08:27:26;;;;;;;6.40;2.10;;;;;;;25.48;46.56;98327.29;104743;1293;136977;-80
2022/07/14 08:29:54;;;;;;;2.70;2.20;;;;;;;25.51;45.74;98326.42;104480;1292;25407;-78
2022/07/14 08:32:42;;;;;;;5.90;2.40;;;;;;;25.59;46.37;98324.13;104657;1292;25452;-78
2022/07/14 08:35:09;;;;;;;;;;;;;;;25.72;46.20;98322.72;104361;1293;137221;-78
2022/07/14 08:37:37;;;;;;;6.20;2.20;;;;;;;25.82;45.89;98321.20;104609;1292;23645;-78
2022/07/14 08:40:06;;;;;;;3.60;2.30;;;;;;;25.91;46.13;98320.36;104622;1293;136944;-78
2022/07/14 08:42:34;;;;;;;3.80;2.20;;;;;;;26.00;45.96;98318.42;104958;1294;25400;-78
2022/07/14 08:45:09;;;;;;;5.60;2.30;;;;;;;26.07;45.82;98321.54;104564;1293;22563;-79
2022/07/14 08:47:36;;;;;;;5.50;2.60;;;;;;;26.13;45.77;98318.14;104418;1293;137348;-78
2022/07/14 08:50:05;;;;;;;6.40;2.40;;;;;;;26.23;46.16;98327.13;104749;1293;24547;-78
2022/07/14 08:52:32;;;;;;;6.30;2.90;;;;;;;26.28;45.93;98325.12;104648;1292;137185;-78
2022/07/14 08:54:59;;;;;;;3.90;2.60;;;;;;;26.35;45.98;98326.52;104465;1292;24329;-79
2022/07/14 08:57:26;;;;;;;4.00;2.50;;;;;;;26.43;46.11;98322.30;104336;1292;137053;-78
2022/07/14 08:59:53;;;;;;;3.80;2.50;;;;;;;26.49;46.10;98323.81;104316;1294;22752;-79
2022/07/14 09:02:25;;;;;;;5.20;2.60;;;;;;;26.55;46.01;98320.40;104672;1293;23430;-80
2022/07/14 09:04:51;;;;;;;5.70;2.90;;;;;;;26.66;46.13;98318.42;104744;1290;136927;-80
2022/07/14 09:07:33;;;;;;;4.80;3.30;;;;;;;26.77;46.12;98322.97;104764;1290;24392;-79
2022/07/14 09:10:11;;;;;;;4.10;2.50;;;;;;;26.85;45.57;98318.31;104623;1289;137164;-78
2022/07/14 09:12:38;;;;;;;13.10;2.90;;;;;;;26.95;45.49;98316.83;104839;1289;25404;-78
2022/07/14 09:18:04;;;;;;;2.80;2.20;;;;;;;27.27;44.83;98308.36;104801;1289;25485;-78
2022/07/14 09:20:36;;;;;;;2.80;2.40;;;;;;;27.46;44.56;98307.55;104963;1291;31858;-79
2022/07/14 09:23:04;;;;;;;9.30;2.90;;;;;;;27.59;43.78;98303.23;105199;1290;136811;-78
2022/07/14 09:25:34;;;;;;;5.90;2.60;;;;;;;27.72;43.44;98301.01;104697;1290;23943;-79
2022/07/14 09:28:01;;;;;;;7.90;2.40;;;;;;;27.85;42.23;98302.36;104632;1290;136937;-79
2022/07/14 09:30:29;;;;;;;2.40;2.00;;;;;;;27.95;42.39;98306.86;104666;1289;22563;-80
2022/07/14 09:33:00;;;;;;;2.50;2.30;;;;;;;28.03;41.96;98307.42;104836;1289;22569;-79
2022/07/14 09:35:36;;;;;;;2.20;2.00;;;;;;;28.10;41.58;98308.80;105050;1289;136909;-80
2022/07/14 09:38:17;;;;;;;6.60;2.60;;;;;;;28.13;41.29;98305.23;105203;1289;23361;-78
2022/07/14 09:40:48;;;;;;;3.70;2.50;;;;;;;28.10;41.12;98310.64;104967;1289;137119;-80
2022/07/14 09:43:15;;;;;;;5.50;2.50;;;;;;;28.11;41.86;98309.63;104895;1290;25530;-79
2022/07/14 09:45:49;;;;;;;4.60;2.70;;;;;;;28.21;41.93;98309.50;105158;1290;136967;-79
2022/07/14 09:48:30;;;;;;;4.40;2.40;;;;;;;28.34;41.58;98306.44;104665;1291;23934;-80
2022/07/14 09:50:59;;;;;;;4.10;3.00;;;;;;;28.54;42.25;98307.83;105278;1289;30456;-80
2022/07/14 09:53:31;;;;;;;7.70;3.10;;;;;;;28.69;42.03;98305.42;104921;1289;137711;-80
2022/07/14 09:56:01;;;;;;;5.50;2.40;;;;;;;28.70;41.65;98306.89;104623;1290;24046;-80
2022/07/14 09:58:31;;;;;;;3.80;2.60;;;;;;;28.80;41.42;98306.44;104799;1289;137307;-81
2022/07/14 10:01:06;;;;;;;5.40;2.60;;;;;;;28.94;41.38;98304.14;105090;1289;25451;-85
2022/07/14 10:03:37;;;;;;;6.10;2.50;;;;;;;29.13;41.15;98299.45;105090;1286;137318;-86
2022/07/14 10:06:04;;;;;;;4.60;3.10;;;;;;;29.25;40.13;98301.86;105287;1286;22731;-84
2022/07/14 10:08:34;;;;;;;3.80;2.10;;;;;;;29.28;39.68;98299.98;105918;1285;24401;-87
2022/07/14 10:11:03;;;;;;;5.90;2.70;;;;;;;29.42;38.79;98300.95;105993;1285;136898;-86
2022/07/14 10:13:29;;;;;;;;;;;;;;;29.45;38.73;98302.44;105621;1285;22571;-87
2022/07/14 10:15:58;;;;;;;6.90;2.50;;;;;;;29.48;39.15;98298.71;105999;1285;123681;-87
2022/07/14 10:18:26;;;;;;;3.70;2.50;;;;;;;29.50;38.63;98295.23;106005;1284;23193;-89
2022/07/14 10:20:59;;;;;;;4.50;2.70;;;;;;;29.46;38.82;98294.99;105487;1286;25567;-91
2022/07/14 10:23:29;;;;;;;5.40;2.50;;;;;;;29.40;38.65;98294.89;106032;1284;138107;-87
2022/07/14 10:26:00;;;;;;;6.20;2.80;;;;;;;29.36;38.84;98295.47;105820;1286;23446;-88
2022/07/14 10:28:30;;;;;;;5.10;2.80;;;;;;;29.47;39.67;98300.29;106064;1286;137218;-85
2022/07/14 10:31:18;;;;;;;6.60;2.50;;;;;;;29.57;37.95;98290.61;105991;1285;25216;-86
2022/07/14 10:33:52;;;;;;;7.50;2.60;;;;;;;29.74;37.93;98286.80;105797;1285;137304;-86
2022/07/14 10:36:42;;;;;;;5.50;2.40;;;;;;;29.85;36.81;98279.69;106083;1285;22569;-86
2022/07/14 10:39:26;;;;;;;2.50;2.30;;;;;;;29.78;38.86;98291.20;105887;1284;23944;-87
2022/07/14 10:42:13;;;;;;;4.10;2.20;;;;;;;29.81;37.55;98285.55;105843;1286;22594;-88
2022/07/14 10:44:52;;;;;;;5.10;2.90;;;;;;;30.02;38.35;98284.27;105935;1283;22350;-85
2022/07/14 10:47:48;;;;;;;4.30;2.70;;;;;;;30.16;36.87;98289.02;106333;1279;137199;-87
2022/07/14 10:50:26;;;;;;;6.10;2.70;;;;;;;30.18;37.41;98283.84;106523;1280;22589;-87
2022/07/14 10:52:55;;;;;;;3.20;2.50;;;;;;;30.35;37.41;98285.52;106312;1281;137409;-87
2022/07/14 10:55:27;;;;;;;3.80;2.50;;;;;;;30.52;36.09;98279.40;106494;1281;23958;-90
2022/07/14 10:58:00;;;;;;;5.20;2.30;;;;;;;30.68;35.78;98280.39;106691;1281;137698;-86
2022/07/14 11:00:41;;;;;;;4.70;2.60;;;;;;;30.81;35.26;98277.24;106260;1281;22777;-86
2022/07/14 11:03:24;;;;;;;3.40;2.60;;;;;;;30.86;34.77;98273.52;106456;1280;23433;-88
2022/07/14 11:06:02;;;;;;;3.80;2.50;;;;;;;30.92;34.42;98267.67;106710;1280;25326;-86
2022/07/14 11:09:05;;;;;;;3.90;2.00;;;;;;;30.88;34.72;98268.00;107053;1281;22710;-86
2022/07/14 11:11:32;;;;;;;2.80;2.40;;;;;;;30.80;34.55;98265.18;106360;1280;137331;-87
2022/07/14 11:14:06;;;;;;;5.70;2.60;;;;;;;30.83;34.53;98260.00;106837;1281;23239;-89
2022/07/14 11:16:53;;;;;;;4.30;2.40;;;;;;;30.94;34.68;98261.10;106326;1281;136934;-86
2022/07/14 11:19:34;;;;;;;4.40;2.50;;;;;;;31.05;34.08;98259.70;106642;1281;22724;-89
2022/07/14 11:22:17;;;;;;;6.10;2.40;;;;;;;31.25;35.16;98252.40;106214;1281;138471;-86
2022/07/14 11:24:57;;;;;;;9.30;2.80;;;;;;;31.29;34.18;98250.90;106552;1280;22663;-85
2022/07/14 11:27:38;;;;;;;4.00;2.60;;;;;;;31.29;34.59;98249.54;106343;1281;137399;-89
2022/07/14 11:30:22;;;;;;;4.90;2.40;;;;;;;31.18;34.08;98250.25;105864;1281;25372;-89
2022/07/14 11:33:11;;;;;;;7.70;2.30;;;;;;;30.97;33.70;98245.96;106124;1280;22582;-90
2022/07/14 11:38:30;;;;;;;3.80;2.50;;;;;;;30.39;35.07;98248.90;105772;1281;22679;-89
2022/07/14 11:41:14;;;;;;;4.00;2.60;;;;;;;30.33;35.73;98250.25;105885;1281;137054;-88
2022/07/14 11:43:47;;;;;;;4.40;2.50;;;;;;;30.25;35.57;98250.30;106244;1280;22714;-89
2022/07/14 11:46:17;;;;;;;5.20;2.80;;;;;;;30.07;36.65;98247.17;106507;1280;137160;-88
2022/07/14 11:48:54;;;;;;;4.00;2.50;;;;;;;29.93;35.92;98246.18;105895;1281;22639;-86
2022/07/14 11:51:23;;;;;;;;;;;;;;;29.82;36.03;98247.31;105958;1281;22495;-88
2022/07/14 11:54:04;;;;;;;5.00;2.70;;;;;;;29.61;36.25;98247.77;106181;1282;24958;-92
2022/07/14 11:56:35;;;;;;;2.50;2.20;;;;;;;29.38;36.14;98242.61;106786;1280;22591;-93
2022/07/14 11:59:05;;;;;;;4.90;2.60;;;;;;;29.19;36.53;98240.27;106696;1281;137281;-90
2022/07/14 12:01:51;;;;;;;2.90;2.70;;;;;;;28.97;37.44;98243.00;106555;1280;23756;-91
2022/07/14 12:04:21;;;;;;;2.80;2.30;;;;;;;28.84;37.92;98244.36;106429;1280;137697;-91
2022/07/14 12:06:48;;;;;;;5.90;2.50;;;;;;;28.70;37.80;98238.02;105932;1281;24163;-92
2022/07/14 12:09:36;;;;;;;3.50;2.60;;;;;;;28.66;39.14;98242.42;106561;1281;25383;-90
2022/07/14 12:15:33;;;;;;;3.00;2.10;;;;;;;28.59;39.37;98242.70;106886;1279;137471;-92
2022/07/14 12:18:09;;;;;;;3.10;2.60;;;;;;;28.59;38.96;98241.02;106593;1281;22544;-91
2022/07/14 12:20:44;;;;;;;3.10;2.70;;;;;;;28.70;38.92;98235.77;106560;1284;25284;-90
2022/07/14 12:23:13;;;;;;;5.60;2.50;;;;;;;28.80;38.35;98230.67;106308;1283;137195;-90
2022/07/14 12:25:50;;;;;;;2.60;2.40;;;;;;;28.85;38.73;98232.52;106259;1283;22800;-91
2022/07/14 12:28:21;;;;;;;4.70;2.50;;;;;;;28.85;38.04;98228.93;106218;1283;137437;-91
2022/07/14 12:30:52;;;;;;;3.00;2.60;;;;;;;28.89;38.13;98225.16;106321;1285;22588;-89
2022/07/14 12:33:36;;;;;;;4.60;2.60;;;;;;;28.93;38.92;98228.05;106590;1283;22590;-90
2022/07/14 12:36:27;;;;;;;5.10;3.00;;;;;;;28.95;39.46;98227.11;106401;1283;22565;-92
2022/07/14 12:38:55;;;;;;;3.30;2.30;;;;;;;28.93;39.55;98227.07;106566;1283;23231;-90
2022/07/14 12:41:27;;;;;;;2.70;2.20;;;;;;;28.92;38.40;98222.73;106051;1283;137459;-91
2022/07/14 12:43:57;;;;;;;4.90;2.50;;;;;;;28.94;39.01;98220.44;106253;1283;22474;-89
2022/07/14 12:46:25;;;;;;;4.10;2.40;;;;;;;28.91;39.32;98219.02;105987;1284;137265;-89
2022/07/14 12:48:55;;;;;;;3.00;2.30;;;;;;;28.84;39.14;98219.62;106123;1283;24469;-89
2022/07/14 12:51:33;;;;;;;4.60;2.50;;;;;;;28.79;39.20;98222.41;106674;1280;25367;-93
2022/07/14 12:54:07;;;;;;;4.10;2.30;;;;;;;28.80;39.05;98223.08;106406;1280;22698;-92
2022/07/14 12:56:44;;;;;;;2.80;2.40;;;;;;;28.76;39.00;98225.63;106730;1280;25410;-92
2022/07/14 12:59:17;;;;;;;3.30;2.20;;;;;;;28.70;39.24;98220.09;106849;1280;137396;-92